Time;durP1;ratioP1;P1;durP2;ratioP2;P2;SDS_P1;SDS_P2;PMS_P1;PMS_P2;Temp;Humidity;BMP_temperature;BMP_pressure;BME280_temperature;BME280_humidity;BME280_pressure;Samples;Min_cycle;Max_cycle;Signal;HPM_P1;HPM_P2
2020/12/13 00:01:49;;;;;;;62.10;27.73;;;7.40;94.00;;;;;;4865068;29;20492;-91
2020/12/13 00:04:20;;;;;;;67.90;29.67;;;7.40;94.20;;;;;;4864712;29;20025;-90
2020/12/13 00:06:51;;;;;;;70.13;30.03;;;7.50;94.00;;;;;;4865640;29;20033;-90
2020/12/13 00:09:22;;;;;;;68.63;29.30;;;7.50;94.20;;;;;;4864977;29;20033;-90
2020/12/13 00:11:50;;;;;;;56.80;26.93;;;7.50;93.90;;;;;;4879609;29;20111;-91
2020/12/13 00:14:26;;;;;;;60.60;28.33;;;7.40;93.70;;;;;;4883422;29;20366;-91
2020/12/13 00:16:57;;;;;;;63.53;30.07;;;7.50;93.90;;;;;;4883387;29;20028;-90
2020/12/13 00:19:31;;;;;;;66.33;28.60;;;7.40;93.50;;;;;;4883308;29;20129;-90
2020/12/13 00:22:08;;;;;;;62.50;29.53;;;7.50;94.10;;;;;;4883438;29;20057;-90
2020/12/13 00:24:42;;;;;;;60.80;28.37;;;7.40;94.30;;;;;;4899918;29;20081;-91
2020/12/13 00:27:17;;;;;;;58.57;26.87;;;7.40;94.50;;;;;;4883142;29;20405;-91
2020/12/13 00:29:54;;;;;;;61.63;29.70;;;7.40;93.80;;;;;;4883495;29;20037;-91
2020/12/13 00:32:27;;;;;;;61.40;27.13;;;7.40;93.80;;;;;;4882929;29;20025;-91
2020/12/13 00:34:55;;;;;;;56.83;28.20;;;7.50;93.90;;;;;;4883175;29;20028;-91
2020/12/13 00:37:39;;;;;;;69.77;28.60;;;7.50;93.60;;;;;;4883246;29;20029;-91
2020/12/13 00:40:11;;;;;;;66.93;28.63;;;7.50;93.70;;;;;;4882800;29;20029;-90
2020/12/13 00:42:40;;;;;;;64.20;29.03;;;7.40;93.80;;;;;;4883090;29;20032;-91
2020/12/13 00:45:16;;;;;;;63.53;27.85;;;7.50;93.40;;;;;;4883171;29;20060;-90
2020/12/13 00:47:46;;;;;;;69.70;28.80;;;7.50;93.50;;;;;;4883043;29;20494;-90
2020/12/13 00:50:14;;;;;;;70.50;30.53;;;7.50;93.50;;;;;;4882930;29;20073;-91
2020/12/13 00:52:40;;;;;;;72.13;30.75;;;7.40;93.30;;;;;;4882864;29;20025;-91
2020/12/13 00:55:06;;;;;;;66.93;31.07;;;7.50;93.80;;;;;;4882571;29;20032;-91
2020/12/13 00:57:32;;;;;;;83.00;30.90;;;7.50;93.40;;;;;;4883134;29;20046;-89
2020/12/13 00:59:57;;;;;;;71.90;29.13;;;7.50;93.50;;;;;;4883134;29;20145;-88
2020/12/13 01:02:23;;;;;;;76.97;29.93;;;7.50;94.10;;;;;;4882743;29;20467;-91
2020/12/13 01:04:48;;;;;;;76.27;29.87;;;7.50;93.30;;;;;;4882824;29;20033;-89
2020/12/13 01:07:14;;;;;;;71.93;30.63;;;7.50;93.70;;;;;;4888171;29;20036;-88
2020/12/13 01:09:40;;;;;;;76.67;30.70;;;7.50;94.10;;;;;;4885682;29;20067;-91
2020/12/13 01:12:05;;;;;;;71.50;30.90;;;7.50;94.40;;;;;;4883115;29;20032;-91
2020/12/13 01:14:31;;;;;;;69.00;29.90;;;7.50;93.70;;;;;;4882549;29;20431;-91
2020/12/13 01:17:16;;;;;;;81.87;32.27;;;7.50;94.00;;;;;;4892080;29;20060;-91
2020/12/13 01:20:05;;;;;;;72.37;29.03;;;7.50;93.70;;;;;;4894502;29;20064;-90
2020/12/13 01:22:47;;;;;;;71.80;28.93;;;7.50;94.40;;;;;;4897622;29;20051;-91
2020/12/13 01:25:18;;;;;;;76.30;30.30;;;7.50;94.00;;;;;;4897162;29;20486;-91
2020/12/13 01:27:52;;;;;;;80.57;31.73;;;7.50;94.20;;;;;;4898027;29;20466;-91
2020/12/13 01:30:25;;;;;;;70.97;29.00;;;7.50;94.70;;;;;;4898324;29;20047;-90
2020/12/13 01:32:59;;;;;;;71.33;29.37;;;7.50;94.50;;;;;;4896222;29;20063;-91
2020/12/13 01:35:29;;;;;;;70.60;30.50;;;7.50;94.50;;;;;;4895926;29;20040;-91
2020/12/13 01:38:05;;;;;;;75.83;29.33;;;7.50;94.50;;;;;;4900586;29;20028;-91
2020/12/13 01:40:48;;;;;;;69.57;28.83;;;7.50;94.40;;;;;;4900482;29;20033;-91
2020/12/13 01:43:16;;;;;;;63.33;26.60;;;7.50;94.40;;;;;;4900696;29;20017;-90
2020/12/13 01:46:07;;;;;;;68.90;27.57;;;7.50;94.20;;;;;;4915970;29;20029;-91
2020/12/13 01:48:44;;;;;;;72.27;29.03;;;7.60;94.40;;;;;;4899344;29;20044;-91
2020/12/13 01:51:27;;;;;;;66.07;27.00;;;7.50;94.20;;;;;;4892621;29;20402;-91
2020/12/13 01:54:24;;;;;;;66.23;27.80;;;7.60;94.30;;;;;;4902405;29;20020;-88
2020/12/13 01:57:06;;;;;;;56.50;25.50;;;7.60;94.60;;;;;;4901667;29;20056;-88
2020/12/13 01:59:45;;;;;;;67.63;27.97;;;7.60;94.40;;;;;;4883061;29;20032;-88
2020/12/13 02:02:22;;;;;;;63.42;27.50;;;7.60;94.60;;;;;;4882890;29;20548;-89
2020/12/13 02:04:55;;;;;;;65.53;27.20;;;7.60;95.10;;;;;;4881850;29;20051;-91
2020/12/13 02:07:33;;;;;;;61.73;25.73;;;7.60;94.90;;;;;;4881866;29;20520;-92
2020/12/13 02:10:17;;;;;;;59.78;25.88;;;7.60;94.80;;;;;;4899036;29;20028;-89
2020/12/13 02:12:56;;;;;;;66.53;28.50;;;7.60;94.90;;;;;;4898615;29;20036;-90
2020/12/13 02:15:27;;;;;;;62.63;28.35;;;7.60;94.70;;;;;;4881023;29;20041;-91
2020/12/13 02:17:59;;;;;;;62.23;27.43;;;7.60;94.80;;;;;;4881796;29;20056;-90
2020/12/13 02:20:32;;;;;;;64.37;27.57;;;7.70;94.80;;;;;;4881575;29;20056;-90
2020/12/13 02:23:01;;;;;;;61.67;27.10;;;7.60;94.80;;;;;;4883656;29;20058;-89
2020/12/13 02:25:35;;;;;;;64.38;28.88;;;7.60;94.20;;;;;;4885308;29;20136;-89
2020/12/13 02:28:06;;;;;;;53.30;26.50;;;7.70;94.60;;;;;;4885652;29;20115;-88
2020/12/13 02:30:42;;;;;;;58.80;25.87;;;7.70;94.70;;;;;;4888623;29;20032;-90
2020/12/13 02:33:11;;;;;;;60.83;26.47;;;7.70;94.00;;;;;;4882755;29;20021;-90
2020/12/13 02:35:42;;;;;;;59.00;26.88;;;7.70;93.90;;;;;;4883775;29;20490;-91
2020/12/13 02:38:30;;;;;;;60.23;27.30;;;7.70;94.40;;;;;;4882399;29;20399;-90
2020/12/13 02:41:09;;;;;;;62.87;25.73;;;7.70;94.50;;;;;;4883758;29;20044;-91
2020/12/13 02:43:44;;;;;;;60.55;27.25;;;7.70;94.40;;;;;;4883425;29;20033;-91
2020/12/13 02:46:36;;;;;;;58.13;26.60;;;7.70;94.00;;;;;;4881331;29;20032;-90
2020/12/13 02:49:04;;;;;;;65.50;27.63;;;7.70;94.30;;;;;;4880812;29;20024;-91
2020/12/13 02:51:29;;;;;;;61.13;27.70;;;7.70;95.00;;;;;;4881396;29;20537;-90
2020/12/13 02:54:05;;;;;;;67.57;28.77;;;7.70;93.60;;;;;;4881790;29;20064;-90
2020/12/13 02:56:42;;;;;;;61.67;26.33;;;7.70;94.00;;;;;;4880779;29;20075;-91
2020/12/13 02:59:13;;;;;;;62.63;26.67;;;7.70;94.40;;;;;;4881127;29;20029;-91
2020/12/13 03:01:46;;;;;;;53.60;26.17;;;7.80;94.30;;;;;;4881057;29;20044;-91
2020/12/13 03:04:11;;;;;;;60.03;28.87;;;7.80;94.70;;;;;;4882073;29;20466;-90
2020/12/13 03:06:37;;;;;;;62.23;27.37;;;7.70;94.30;;;;;;4882529;29;20149;-91
2020/12/13 03:09:02;;;;;;;63.67;25.53;;;7.80;94.30;;;;;;4881400;29;20032;-91
2020/12/13 03:11:29;;;;;;;58.27;27.27;;;7.70;94.60;;;;;;4882251;29;20241;-91
2020/12/13 03:13:54;;;;;;;57.60;26.63;;;7.70;94.50;;;;;;4897662;29;20025;-91
2020/12/13 03:16:20;;;;;;;59.33;26.93;;;7.80;94.00;;;;;;4880877;29;20027;-90
2020/12/13 03:18:45;;;;;;;68.17;29.10;;;7.80;94.50;;;;;;4881417;29;20432;-90
2020/12/13 03:21:11;;;;;;;63.40;28.03;;;7.80;94.70;;;;;;4881846;29;20033;-91
2020/12/13 03:23:37;;;;;;;61.97;27.33;;;7.80;94.50;;;;;;4881459;29;20092;-91
2020/12/13 03:26:03;;;;;;;58.77;26.10;;;7.70;94.40;;;;;;4881786;29;20039;-90
2020/12/13 03:28:28;;;;;;;66.77;28.87;;;7.80;94.50;;;;;;4880835;29;20040;-90
2020/12/13 03:30:54;;;;;;;61.27;25.93;;;7.80;94.50;;;;;;4882076;29;20475;-90
2020/12/13 03:33:20;;;;;;;65.27;27.43;;;7.80;93.90;;;;;;4880808;29;20060;-90
2020/12/13 03:35:46;;;;;;;55.20;25.83;;;7.80;94.30;;;;;;4880662;29;20028;-91
2020/12/13 03:38:11;;;;;;;58.67;25.63;;;7.80;94.30;;;;;;4880657;29;20061;-90
2020/12/13 03:40:37;;;;;;;56.87;25.73;;;7.80;94.60;;;;;;4880446;29;20029;-90
2020/12/13 03:43:03;;;;;;;59.20;25.20;;;7.80;94.50;;;;;;4880220;29;20037;-90
2020/12/13 03:45:28;;;;;;;59.60;26.03;;;7.80;94.80;;;;;;4880216;29;20036;-91
2020/12/13 03:47:54;;;;;;;58.37;24.97;;;7.70;94.50;;;;;;4880935;29;20032;-91
2020/12/13 03:50:20;;;;;;;54.73;23.93;;;7.80;94.70;;;;;;4882884;29;20033;-91
2020/12/13 03:52:45;;;;;;;54.33;24.27;;;7.80;94.40;;;;;;4897146;29;20139;-90
2020/12/13 03:55:11;;;;;;;57.03;25.37;;;7.80;94.20;;;;;;4897770;29;20032;-91
2020/12/13 03:57:37;;;;;;;58.47;25.93;;;7.80;94.70;;;;;;4882280;29;20033;-90
2020/12/13 04:00:04;;;;;;;57.30;25.13;;;7.80;94.70;;;;;;4880728;29;20095;-90
2020/12/13 04:02:30;;;;;;;52.90;23.97;;;7.80;94.10;;;;;;4880241;29;20044;-90
2020/12/13 04:04:55;;;;;;;51.33;23.17;;;7.80;94.60;;;;;;4896975;29;20374;-91
2020/12/13 04:07:21;;;;;;;49.83;23.30;;;7.80;94.60;;;;;;4880083;29;20177;-91
2020/12/13 04:09:47;;;;;;;51.23;23.37;;;7.80;94.40;;;;;;4880301;29;20044;-91
2020/12/13 04:12:12;;;;;;;48.17;22.10;;;7.80;94.30;;;;;;4880176;29;20049;-90
2020/12/13 04:14:38;;;;;;;52.33;22.50;;;7.80;94.20;;;;;;4900242;29;20490;-91
2020/12/13 04:17:03;;;;;;;49.07;23.60;;;7.80;94.30;;;;;;4883759;29;20028;-90
2020/12/13 04:19:31;;;;;;;47.63;22.77;;;7.80;94.60;;;;;;4883521;29;20037;-90
2020/12/13 04:21:57;;;;;;;50.67;23.67;;;7.80;94.30;;;;;;4900263;29;20043;-91
2020/12/13 04:24:23;;;;;;;50.20;21.90;;;7.80;94.40;;;;;;4883187;29;20530;-90
2020/12/13 04:26:49;;;;;;;48.57;22.80;;;7.80;94.30;;;;;;4883741;29;20041;-91
2020/12/13 04:29:14;;;;;;;45.87;21.50;;;7.80;94.30;;;;;;4885021;29;20032;-90
2020/12/13 04:31:40;;;;;;;46.97;22.03;;;7.80;94.30;;;;;;4884401;29;20021;-90
2020/12/13 04:34:06;;;;;;;46.83;21.53;;;7.80;94.50;;;;;;4883559;29;20470;-90
2020/12/13 04:36:31;;;;;;;44.67;21.93;;;7.80;94.10;;;;;;4883216;29;20052;-90
2020/12/13 04:38:57;;;;;;;46.73;21.30;;;7.80;94.50;;;;;;4883410;29;20115;-91
2020/12/13 04:41:22;;;;;;;47.43;22.67;;;7.80;94.50;;;;;;4883258;29;20066;-90
2020/12/13 04:43:49;;;;;;;50.97;22.13;;;7.80;94.30;;;;;;4883021;29;20036;-89
2020/12/13 04:46:15;;;;;;;44.23;21.50;;;7.80;94.70;;;;;;4884378;29;20032;-90
2020/12/13 04:48:41;;;;;;;45.47;21.37;;;7.80;94.40;;;;;;4883117;29;20028;-91
2020/12/13 04:51:08;;;;;;;44.33;21.63;;;7.80;94.20;;;;;;4883118;29;20436;-91
2020/12/13 04:53:38;;;;;;;40.30;18.97;;;7.80;94.40;;;;;;4883009;29;20021;-91
2020/12/13 04:56:09;;;;;;;38.40;17.57;;;7.80;94.20;;;;;;4882916;29;20096;-91
2020/12/13 04:58:35;;;;;;;35.67;16.07;;;7.80;94.40;;;;;;4882866;29;20052;-91
2020/12/13 05:01:03;;;;;;;32.20;15.20;;;7.80;94.10;;;;;;4882745;29;20024;-91
2020/12/13 05:03:30;;;;;;;29.63;14.00;;;7.80;94.60;;;;;;4882594;29;20033;-88
2020/12/13 05:05:58;;;;;;;29.37;13.97;;;7.80;94.20;;;;;;4882379;29;20029;-90
2020/12/13 05:08:28;;;;;;;28.63;13.10;;;7.80;94.10;;;;;;4882664;29;20033;-90
2020/12/13 05:10:53;;;;;;;29.43;13.40;;;7.80;94.20;;;;;;4882585;29;20482;-91
2020/12/13 05:13:24;;;;;;;27.80;12.53;;;7.80;94.30;;;;;;4882283;29;20070;-90
2020/12/13 05:16:14;;;;;;;25.27;12.30;;;7.80;94.10;;;;;;4882565;29;20024;-90
2020/12/13 05:18:53;;;;;;;24.10;11.67;;;7.80;94.10;;;;;;4882812;29;20032;-90
2020/12/13 05:21:31;;;;;;;25.83;12.23;;;7.80;94.20;;;;;;4882390;29;20482;-91
2020/12/13 05:24:03;;;;;;;23.67;11.57;;;7.70;93.90;;;;;;4882102;29;20040;-90
2020/12/13 05:26:35;;;;;;;27.47;12.20;;;7.70;94.20;;;;;;4881494;29;20096;-91
2020/12/13 05:29:05;;;;;;;25.93;12.37;;;7.70;94.30;;;;;;4882302;29;20040;-91
2020/12/13 05:31:45;;;;;;;24.67;12.30;;;7.70;94.20;;;;;;4882225;29;20037;-89
2020/12/13 05:34:18;;;;;;;27.10;12.30;;;7.70;94.10;;;;;;4882171;29;20108;-88
2020/12/13 05:36:47;;;;;;;28.33;13.77;;;7.70;94.00;;;;;;4882028;29;20127;-90
2020/12/13 05:39:13;;;;;;;27.80;12.60;;;7.70;94.40;;;;;;4881722;29;20481;-90
2020/12/13 05:41:39;;;;;;;27.60;13.53;;;7.70;94.20;;;;;;4865411;29;20029;-90
2020/12/13 05:53:02;;;;;;;28.03;13.63;;;7.70;94.20;;;;;;4880503;29;20079;-89
2020/12/13 05:55:57;;;;;;;31.53;13.67;;;7.70;94.20;;;;;;4862817;29;20471;-90
2020/12/13 05:58:39;;;;;;;28.70;15.13;;;7.70;94.20;;;;;;4863220;29;20451;-91
2020/12/13 06:01:13;;;;;;;28.13;14.40;;;7.60;94.30;;;;;;4863295;29;20086;-90
2020/12/13 06:03:58;;;;;;;;;;;;;;;;;;;;;
2020/12/13 06:06:40;;;;;;;31.60;14.87;;;7.70;94.10;;;;;;4879613;29;20039;-90
2020/12/13 06:09:12;;;;;;;32.37;15.77;;;7.70;94.30;;;;;;4863141;29;20131;-91
2020/12/13 06:11:45;;;;;;;31.37;15.20;;;7.70;94.20;;;;;;4863295;29;20037;-91
2020/12/13 06:14:37;;;;;;;32.20;15.17;;;7.70;94.20;;;;;;4863136;29;20032;-91
2020/12/13 06:17:22;;;;;;;31.30;15.17;;;7.60;94.10;;;;;;4862753;29;20028;-89
2020/12/13 06:19:50;;;;;;;31.83;14.90;;;7.60;94.10;;;;;;4862921;29;20041;-90
2020/12/13 06:25:40;;;;;;;;;;;;;;;;;;;;;
2020/12/13 06:28:06;;;;;;;34.03;15.73;;;7.60;93.80;;;;;;4879425;29;20037;-89
2020/12/13 06:30:54;;;;;;;32.27;15.93;;;7.60;93.90;;;;;;4862677;29;20029;-90
2020/12/13 06:33:33;;;;;;;32.27;15.07;;;7.60;94.00;;;;;;4862474;29;20029;-90
2020/12/13 06:36:04;;;;;;;32.50;15.53;;;7.60;94.00;;;;;;4862030;29;20056;-90
2020/12/13 06:38:33;;;;;;;30.27;15.67;;;7.60;93.90;;;;;;4862484;29;20032;-91
2020/12/13 06:41:34;;;;;;;32.63;16.05;;;7.60;94.00;;;;;;4873904;29;20097;-91
2020/12/13 06:44:13;;;;;;;34.70;15.80;;;7.60;93.90;;;;;;4850229;29;20128;-91
2020/12/13 06:46:44;;;;;;;32.17;15.87;;;7.50;94.00;;;;;;4880971;29;20064;-91
2020/12/13 06:49:21;;;;;;;31.83;16.13;;;7.60;94.10;;;;;;4880572;29;20036;-90
2020/12/13 06:51:54;;;;;;;32.90;17.17;;;7.60;94.00;;;;;;4880875;29;20028;-90
2020/12/13 06:54:25;;;;;;;31.07;15.77;;;7.60;94.00;;;;;;4881152;29;20044;-90
2020/12/13 06:56:54;;;;;;;35.70;15.90;;;7.50;93.90;;;;;;4879581;29;20044;-91
2020/12/13 06:59:21;;;;;;;33.30;16.33;;;7.50;93.90;;;;;;4881866;29;20029;-90
2020/12/13 07:01:53;;;;;;;35.30;16.53;;;7.50;94.00;;;;;;4881245;29;20047;-90
2020/12/13 07:04:35;;;;;;;34.60;17.00;;;7.50;94.00;;;;;;4881455;29;20223;-90
2020/12/13 07:09:40;;;;;;;35.17;16.50;;;7.50;93.80;;;;;;4899492;29;20560;-91
2020/12/13 07:12:13;;;;;;;34.07;16.00;;;7.50;93.80;;;;;;4880987;29;20036;-90
2020/12/13 07:14:48;;;;;;;33.03;16.00;;;7.60;93.70;;;;;;4881172;29;20055;-91
2020/12/13 07:17:24;;;;;;;32.67;15.87;;;7.50;93.80;;;;;;4880893;29;20039;-90
2020/12/13 07:19:55;;;;;;;36.47;16.93;;;7.50;93.90;;;;;;4880480;29;20039;-90
2020/12/13 07:22:20;;;;;;;34.27;17.27;;;7.50;93.90;;;;;;4880735;29;20032;-91
2020/12/13 07:24:46;;;;;;;32.33;15.93;;;7.50;93.80;;;;;;4880645;29;20037;-91
2020/12/13 07:27:12;;;;;;;36.83;17.63;;;7.50;93.80;;;;;;4880655;29;20039;-91
2020/12/13 07:29:38;;;;;;;34.80;17.17;;;7.50;93.90;;;;;;4880937;29;20458;-91
2020/12/13 07:32:05;;;;;;;37.07;17.13;;;7.50;93.90;;;;;;4880791;29;20025;-92
2020/12/13 07:34:31;;;;;;;35.10;17.57;;;7.50;93.90;;;;;;4880550;29;20131;-91
2020/12/13 07:36:59;;;;;;;33.67;17.53;;;7.50;93.90;;;;;;4881138;29;20170;-90
2020/12/13 07:39:24;;;;;;;35.03;16.37;;;7.50;93.90;;;;;;4880693;29;20040;-91
2020/12/13 07:41:50;;;;;;;34.63;16.63;;;7.50;93.90;;;;;;4880251;29;20024;-91
2020/12/13 07:44:17;;;;;;;35.07;17.33;;;7.50;93.80;;;;;;4889884;29;20390;-90
2020/12/13 07:46:44;;;;;;;33.03;15.53;;;7.50;93.90;;;;;;4898644;29;20035;-90
2020/12/13 07:49:18;;;;;;;34.53;16.33;;;7.50;93.80;;;;;;4899859;29;20489;-90
2020/12/13 07:51:48;;;;;;;34.47;16.83;;;7.50;93.80;;;;;;4902447;29;20048;-90
2020/12/13 07:54:22;;;;;;;35.47;16.43;;;7.50;93.80;;;;;;4902825;29;20470;-90
2020/12/13 07:56:53;;;;;;;36.37;16.53;;;7.50;93.80;;;;;;4902162;29;20059;-90
2020/12/13 07:59:22;;;;;;;32.87;15.33;;;7.50;93.80;;;;;;4902383;29;20032;-91
2020/12/13 08:01:49;;;;;;;35.33;17.03;;;7.50;93.70;;;;;;4902936;29;20390;-90
2020/12/13 08:04:29;;;;;;;35.77;18.33;;;7.50;93.80;;;;;;4902257;29;20028;-90
2020/12/13 08:06:59;;;;;;;33.10;17.60;;;7.50;93.80;;;;;;4902617;29;20153;-91
2020/12/13 08:09:25;;;;;;;33.30;17.90;;;7.50;93.80;;;;;;4902558;29;20030;-90
2020/12/13 08:11:51;;;;;;;38.60;18.93;;;7.50;93.80;;;;;;4902113;29;20028;-90
2020/12/13 08:14:23;;;;;;;35.03;17.63;;;7.50;93.90;;;;;;4902522;29;20111;-91
2020/12/13 08:16:51;;;;;;;35.57;16.93;;;7.50;93.90;;;;;;4902248;29;20055;-91
2020/12/13 08:19:21;;;;;;;38.13;17.73;;;7.50;93.90;;;;;;4892572;29;20060;-90
2020/12/13 08:22:08;;;;;;;35.13;17.87;;;7.50;93.90;;;;;;4901109;29;20355;-92
2020/12/13 08:24:34;;;;;;;38.57;18.00;;;7.50;93.80;;;;;;4902278;29;20028;-91
2020/12/13 08:27:00;;;;;;;38.13;18.60;;;7.50;93.90;;;;;;4902049;29;20039;-91
2020/12/13 08:29:28;;;;;;;40.10;18.73;;;7.50;93.90;;;;;;4902315;29;20032;-90
2020/12/13 08:31:55;;;;;;;39.10;18.77;;;7.50;93.80;;;;;;4902150;29;20024;-92
2020/12/13 08:34:29;;;;;;;38.47;18.57;;;7.50;93.80;;;;;;4902277;29;20032;-90
2020/12/13 08:36:58;;;;;;;38.73;18.83;;;7.50;93.90;;;;;;4901794;29;20032;-90
2020/12/13 08:39:29;;;;;;;39.50;19.27;;;7.50;93.80;;;;;;4902759;29;20034;-90
2020/12/13 08:41:55;;;;;;;38.70;18.23;;;7.50;93.80;;;;;;4883824;29;20028;-91
2020/12/13 08:44:32;;;;;;;38.57;19.13;;;7.50;93.70;;;;;;4883567;29;20052;-90
2020/12/13 08:47:04;;;;;;;42.90;19.90;;;7.50;93.90;;;;;;4884445;29;20024;-90
2020/12/13 08:49:35;;;;;;;38.50;19.37;;;7.50;93.80;;;;;;4883071;29;20025;-91
2020/12/13 08:52:21;;;;;;;39.70;19.67;;;7.50;93.70;;;;;;4883108;29;20052;-90
2020/12/13 08:54:55;;;;;;;39.47;19.07;;;7.50;93.70;;;;;;4883284;29;20032;-91
2020/12/13 08:57:32;;;;;;;39.57;18.97;;;7.50;93.70;;;;;;4883906;29;20549;-91
2020/12/13 09:00:10;;;;;;;44.17;21.13;;;7.50;93.90;;;;;;4883163;29;20039;-91
2020/12/13 09:02:37;;;;;;;41.60;20.08;;;7.50;94.00;;;;;;4882799;29;20028;-90
2020/12/13 09:05:07;;;;;;;41.13;18.53;;;7.50;93.90;;;;;;4882916;29;20033;-90
2020/12/13 09:07:33;;;;;;;45.57;21.23;;;7.50;93.80;;;;;;4882613;29;20032;-91
2020/12/13 09:10:08;;;;;;;39.93;19.87;;;7.50;93.90;;;;;;4882745;29;20040;-91
2020/12/13 09:12:35;;;;;;;42.10;20.60;;;7.50;93.90;;;;;;4882895;29;20379;-90
2020/12/13 09:15:15;;;;;;;42.17;21.13;;;7.50;93.90;;;;;;4882380;29;20025;-90
2020/12/13 09:17:41;;;;;;;39.57;20.33;;;7.50;93.80;;;;;;4882678;29;20020;-90
2020/12/13 09:20:08;;;;;;;42.87;19.83;;;7.50;93.80;;;;;;4882610;29;20064;-91
2020/12/13 09:22:38;;;;;;;40.30;20.30;;;7.60;94.10;;;;;;4882442;29;20025;-90
2020/12/13 09:25:07;;;;;;;41.50;19.73;;;7.50;93.90;;;;;;4900437;29;20040;-90
2020/12/13 09:27:33;;;;;;;39.97;20.20;;;7.50;93.80;;;;;;4883306;29;20024;-90
2020/12/13 09:30:16;;;;;;;44.13;20.43;;;7.50;93.90;;;;;;4882883;29;20037;-90
2020/12/13 09:32:46;;;;;;;42.20;19.90;;;7.60;93.90;;;;;;4883276;29;20032;-91
2020/12/13 09:35:17;;;;;;;40.30;19.20;;;7.60;94.00;;;;;;4882110;29;20486;-90
2020/12/13 09:37:53;;;;;;;41.37;20.37;;;7.60;93.90;;;;;;4882362;29;20025;-90
2020/12/13 09:40:40;;;;;;;;;;;;;;;;;;;;;
2020/12/13 09:43:10;;;;;;;40.97;20.37;;;7.60;93.70;;;;;;4880188;29;20051;-90
2020/12/13 09:45:43;;;;;;;41.00;19.50;;;7.60;93.70;;;;;;4863401;29;20085;-91
2020/12/13 09:48:16;;;;;;;42.27;20.60;;;7.70;93.90;;;;;;4865098;29;20041;-91
2020/12/13 09:50:54;;;;;;;41.23;20.27;;;7.70;93.80;;;;;;4863586;29;20064;-91
2020/12/13 09:53:43;;;;;;;37.67;19.53;;;7.60;93.80;;;;;;4863819;29;20456;-90
2020/12/13 09:56:43;;;;;;;37.90;18.92;;;7.70;93.80;;;;;;4862208;29;20053;-90
2020/12/13 09:59:35;;;;;;;41.20;20.40;;;7.70;94.00;;;;;;4863230;29;20097;-90
2020/12/13 10:02:14;;;;;;;41.57;20.07;;;7.70;93.80;;;;;;4863103;29;20474;-90
2020/12/13 10:04:49;;;;;;;45.22;19.75;;;7.70;94.00;;;;;;4864426;29;20402;-91
2020/12/13 10:10:26;;;;;;;46.90;19.38;;;7.70;93.90;;;;;;4879522;29;20033;-90
2020/12/13 10:13:00;;;;;;;51.97;21.33;;;7.70;93.80;;;;;;4862593;29;20037;-91
2020/12/13 10:15:28;;;;;;;47.37;20.30;;;7.70;93.60;;;;;;4862959;29;20032;-91
2020/12/13 10:18:02;;;;;;;50.77;21.57;;;7.70;93.80;;;;;;4862627;29;20025;-88
2020/12/13 10:20:45;;;;;;;48.20;21.50;;;7.70;93.80;;;;;;4862874;29;20278;-90
2020/12/13 10:23:28;;;;;;;49.13;22.07;;;7.70;93.80;;;;;;4862450;29;20036;-90
2020/12/13 10:25:59;;;;;;;47.60;21.40;;;7.70;93.80;;;;;;4862745;29;20036;-91
2020/12/13 10:28:31;;;;;;;48.43;21.20;;;7.80;94.00;;;;;;4862849;29;20036;-90
2020/12/13 10:31:10;;;;;;;51.00;21.40;;;7.80;93.70;;;;;;4863026;29;20475;-89
2020/12/13 10:34:05;;;;;;;;;;;;;;;;;;;;;
2020/12/13 10:36:37;;;;;;;50.00;20.90;;;7.80;93.50;;;;;;4879382;29;20033;-91
2020/12/13 10:39:06;;;;;;;52.27;23.20;;;7.80;93.90;;;;;;4862348;29;20033;-90
2020/12/13 10:41:40;;;;;;;51.33;23.63;;;7.80;93.70;;;;;;4878006;29;20380;-90
2020/12/13 10:44:09;;;;;;;53.30;22.97;;;7.80;93.60;;;;;;4880438;29;20124;-90
2020/12/13 10:46:51;;;;;;;54.83;22.55;;;7.80;93.60;;;;;;4880838;29;20173;-91
2020/12/13 10:49:19;;;;;;;52.27;23.47;;;7.80;93.90;;;;;;4880781;29;20029;-90
2020/12/13 10:52:00;;;;;;;49.60;22.63;;;7.80;94.20;;;;;;4880027;29;20497;-91
2020/12/13 10:54:36;;;;;;;50.13;22.20;;;7.80;93.90;;;;;;4880178;29;20143;-90
2020/12/13 10:57:09;;;;;;;47.43;22.23;;;7.80;93.80;;;;;;4880883;29;20045;-90
2020/12/13 10:59:42;;;;;;;50.60;23.03;;;7.80;94.20;;;;;;4880782;29;20028;-90
2020/12/13 11:02:25;;;;;;;49.67;23.37;;;7.80;93.90;;;;;;4880613;29;20029;-91
2020/12/13 11:05:01;;;;;;;51.97;23.50;;;7.80;93.90;;;;;;4880161;29;20113;-90
2020/12/13 11:07:32;;;;;;;48.77;22.33;;;7.90;94.20;;;;;;4880828;29;20036;-90
2020/12/13 11:10:03;;;;;;;48.90;23.10;;;7.90;94.10;;;;;;4880620;29;20452;-90
2020/12/13 11:12:31;;;;;;;50.73;24.37;;;7.90;93.90;;;;;;4880249;29;20033;-90
2020/12/13 11:15:00;;;;;;;47.53;22.60;;;7.90;94.10;;;;;;4879895;29;20439;-90
2020/12/13 11:17:41;;;;;;;50.20;23.13;;;7.90;93.70;;;;;;4884911;29;20028;-90
2020/12/13 11:20:16;;;;;;;48.47;21.60;;;7.90;94.10;;;;;;4888593;29;20061;-91
2020/12/13 11:22:44;;;;;;;50.20;23.50;;;7.90;94.20;;;;;;4884865;29;20033;-91
2020/12/13 11:25:21;;;;;;;50.13;22.63;;;8.00;93.80;;;;;;4891919;29;20037;-91
2020/12/13 11:27:56;;;;;;;46.53;21.23;;;8.00;93.80;;;;;;4889861;29;20064;-90
2020/12/13 11:30:30;;;;;;;44.43;21.97;;;8.00;93.90;;;;;;4889645;29;20060;-91
2020/12/13 11:32:59;;;;;;;45.63;21.43;;;8.00;94.00;;;;;;4887058;29;20056;-91
2020/12/13 11:35:25;;;;;;;48.13;23.27;;;8.00;93.90;;;;;;4885297;29;20027;-91
2020/12/13 11:37:51;;;;;;;45.10;21.70;;;8.00;94.30;;;;;;4885446;29;20025;-91
2020/12/13 11:40:17;;;;;;;48.00;22.13;;;8.00;94.20;;;;;;4878917;29;20649;-91
2020/12/13 11:42:42;;;;;;;49.27;21.60;;;8.10;93.90;;;;;;4882885;29;20035;-90
2020/12/13 11:45:08;;;;;;;47.13;22.43;;;8.10;93.50;;;;;;4866582;29;20041;-91
2020/12/13 11:47:35;;;;;;;51.20;24.77;;;8.10;93.60;;;;;;4866652;29;20040;-89
2020/12/13 11:50:00;;;;;;;48.50;23.67;;;8.10;93.50;;;;;;4866508;29;20086;-91
2020/12/13 11:52:26;;;;;;;50.37;23.33;;;8.10;93.90;;;;;;4865670;29;20062;-90
2020/12/13 11:54:52;;;;;;;51.50;23.67;;;8.20;94.10;;;;;;4865452;29;20033;-91
2020/12/13 11:57:17;;;;;;;52.27;24.20;;;8.10;94.10;;;;;;4866253;29;20530;-91
2020/12/13 11:59:44;;;;;;;46.50;22.20;;;8.20;94.20;;;;;;4866455;29;20116;-90
2020/12/13 12:02:09;;;;;;;47.10;23.07;;;8.10;94.00;;;;;;4865563;29;20037;-91
2020/12/13 12:04:35;;;;;;;50.30;23.40;;;8.20;93.70;;;;;;4865432;29;20039;-91
2020/12/13 12:07:02;;;;;;;49.80;22.80;;;8.10;93.90;;;;;;4865403;29;20493;-91
2020/12/13 12:09:28;;;;;;;53.23;23.47;;;8.10;93.70;;;;;;4864868;29;20483;-90
2020/12/13 12:11:53;;;;;;;49.30;23.10;;;8.20;94.00;;;;;;4865664;29;20029;-91
2020/12/13 12:14:19;;;;;;;49.77;23.27;;;8.20;94.10;;;;;;4865291;29;20035;-90
2020/12/13 12:16:45;;;;;;;48.70;23.73;;;8.10;94.10;;;;;;4865391;29;20056;-91
2020/12/13 12:19:11;;;;;;;49.50;24.17;;;8.20;94.00;;;;;;4865216;29;20037;-90
2020/12/13 12:21:43;;;;;;;52.40;24.03;;;8.20;94.10;;;;;;4865135;29;20102;-90
2020/12/13 12:24:09;;;;;;;50.93;22.77;;;8.20;94.00;;;;;;4865256;29;20132;-91
2020/12/13 12:26:35;;;;;;;47.33;23.40;;;8.20;94.50;;;;;;4864980;29;20469;-90
2020/12/13 12:29:02;;;;;;;48.83;22.37;;;8.20;94.40;;;;;;4865118;29;20105;-91
2020/12/13 12:31:28;;;;;;;46.87;22.97;;;8.20;93.90;;;;;;4864525;29;20044;-91
2020/12/13 12:33:54;;;;;;;45.83;23.70;;;8.20;94.00;;;;;;4865304;29;20033;-90
2020/12/13 12:36:21;;;;;;;48.10;22.73;;;8.20;94.00;;;;;;4864650;29;20037;-90
2020/12/13 12:38:48;;;;;;;42.13;21.90;;;8.20;93.90;;;;;;4864762;29;20029;-90
2020/12/13 12:41:15;;;;;;;45.83;21.13;;;8.20;93.90;;;;;;4864717;29;20119;-89
2020/12/13 12:43:41;;;;;;;38.70;19.03;;;8.20;93.90;;;;;;4864694;29;20471;-91
2020/12/13 12:46:08;;;;;;;45.90;21.13;;;8.20;93.80;;;;;;4864756;29;20033;-91
2020/12/13 12:48:33;;;;;;;43.13;21.33;;;8.20;93.90;;;;;;4864895;29;20041;-91
2020/12/13 12:51:19;;;;;;;40.00;20.53;;;8.20;93.80;;;;;;4864235;29;20096;-91
2020/12/13 12:53:52;;;;;;;39.43;18.47;;;8.20;94.10;;;;;;4864511;29;20346;-89
2020/12/13 12:56:28;;;;;;;40.23;19.13;;;8.20;93.90;;;;;;4864562;29;20041;-90
2020/12/13 13:08:35;;;;;;;35.37;17.70;;;8.20;93.70;;;;;;4863830;29;20089;-91
2020/12/13 13:11:09;;;;;;;35.92;18.48;;;8.20;93.70;;;;;;4864063;29;20558;-91
2020/12/13 13:13:46;;;;;;;38.83;18.50;;;8.20;93.90;;;;;;4880845;29;20043;-91
2020/12/13 13:16:32;;;;;;;38.30;18.83;;;8.20;93.90;;;;;;4864240;29;20044;-91
2020/12/13 13:19:05;;;;;;;39.47;19.70;;;8.20;93.70;;;;;;4864500;29;20121;-90
2020/12/13 13:21:39;;;;;;;35.97;18.43;;;8.20;93.80;;;;;;4863636;29;20093;-90
2020/12/13 13:24:11;;;;;;;34.97;19.00;;;8.20;93.80;;;;;;4864023;29;20414;-89
2020/12/13 13:26:40;;;;;;;37.00;20.40;;;8.20;94.10;;;;;;4849395;29;20057;-91
2020/12/13 13:29:09;;;;;;;38.03;20.25;;;8.20;94.00;;;;;;4864266;29;20037;-91
2020/12/13 13:31:40;;;;;;;36.28;19.25;;;8.20;93.70;;;;;;4863855;29;20033;-90